N024SB PHJR-PHMK

Flight info

Callsign N024SB
Flight time 0h 18m
Altitude 8000
Route VFR
Aircraft PC24/M-SBDGIRWY/LB2

Departure

Time 2026-05-05 22:53
Airport Kalaeloa Airport (PHJR)

Arrival

Time 2026-05-05 23:11
Airport Molokai Airport (PHMK)
Time Latitude Longitude Altitude Speed Heading
2026-05-05 22:47 21.31181 -158.07725 28 ft 0 kts 32°
2026-05-05 22:50 21.31189 -158.07723 28 ft 2 kts 338°
2026-05-05 22:51 21.31191 -158.07730 28 ft 5 kts 276°
2026-05-05 22:51 21.31156 -158.07777 28 ft 17 kts 218°
2026-05-05 22:51 21.31069 -158.07899 25 ft 23 kts 285°
2026-05-05 22:51 21.31157 -158.08062 27 ft 28 kts 300°
2026-05-05 22:52 21.31268 -158.08251 29 ft 32 kts 301°
2026-05-05 22:52 21.31154 -158.08351 30 ft 26 kts 134°
2026-05-05 22:52 21.30961 -158.07972 27 ft 103 kts 119°
2026-05-05 22:52 21.30494 -158.07092 287 ft 164 kts 121°
2026-05-05 22:53 21.29883 -158.05810 838 ft 217 kts 119°
2026-05-05 22:53 21.29159 -158.04237 1600 ft 252 kts 116°
2026-05-05 22:53 21.28360 -158.02517 2370 ft 262 kts 119°
2026-05-05 22:53 21.27473 -158.00767 3031 ft 273 kts 120°
2026-05-05 22:54 21.26331 -157.99144 3250 ft 268 kts 139°
2026-05-05 22:54 21.25018 -157.97745 4008 ft 264 kts 135°
2026-05-05 22:54 21.23713 -157.96217 4010 ft 289 kts 126°
2026-05-05 22:54 21.22597 -157.94559 4085 ft 272 kts 130°
2026-05-05 22:55 21.21351 -157.93020 4091 ft 273 kts 131°
2026-05-05 22:55 21.20470 -157.91247 4084 ft 274 kts 107°
2026-05-05 22:55 21.20035 -157.89262 4093 ft 274 kts 102°
2026-05-05 22:55 21.19643 -157.87259 4095 ft 276 kts 102°
2026-05-05 22:56 21.19261 -157.85233 4092 ft 277 kts 101°
2026-05-05 22:56 21.18885 -157.83206 4093 ft 278 kts 101°
2026-05-05 22:56 21.18514 -157.81180 4092 ft 276 kts 101°
2026-05-05 22:56 21.18146 -157.79168 4090 ft 274 kts 101°
2026-05-05 22:57 21.17784 -157.77195 4085 ft 273 kts 102°
2026-05-05 22:57 21.17421 -157.75197 4084 ft 273 kts 101°
2026-05-05 22:57 21.17130 -157.73171 4039 ft 277 kts 98°
2026-05-05 22:57 21.16881 -157.71127 3920 ft 276 kts 97°
2026-05-05 22:58 21.16636 -157.69091 3801 ft 275 kts 97°
2026-05-05 22:58 21.16395 -157.67057 3672 ft 275 kts 97°
2026-05-05 22:58 21.16156 -157.65028 3551 ft 275 kts 97°
2026-05-05 22:58 21.15921 -157.62996 3428 ft 274 kts 97°
2026-05-05 22:59 21.15684 -157.60973 3303 ft 273 kts 97°
2026-05-05 22:59 21.15448 -157.58992 3179 ft 271 kts 97°
2026-05-05 22:59 21.15211 -157.56989 3071 ft 271 kts 97°
2026-05-05 22:59 21.14977 -157.54997 3071 ft 270 kts 97°
2026-05-05 23:00 21.14514 -157.51010 3076 ft 270 kts 97°
2026-05-05 23:00 21.14283 -157.49011 3076 ft 270 kts 97°
2026-05-05 23:00 21.14053 -157.47009 3076 ft 271 kts 97°
2026-05-05 23:01 21.13819 -157.45002 3076 ft 271 kts 97°
2026-05-05 23:01 21.13585 -157.43028 3076 ft 271 kts 97°
2026-05-05 23:01 21.13349 -157.41028 3080 ft 271 kts 97°
2026-05-05 23:01 21.13159 -157.39015 3086 ft 272 kts 95°
2026-05-05 23:02 21.13033 -157.37006 3006 ft 265 kts 93°
2026-05-05 23:02 21.12962 -157.35114 2947 ft 242 kts 91°
2026-05-05 23:02 21.12948 -157.33965 2950 ft 227 kts 91°
2026-05-05 23:02 21.12932 -157.32322 2769 ft 215 kts 90°
2026-05-05 23:03 21.12915 -157.30326 2840 ft 182 kts 90°
2026-05-05 23:03 21.12936 -157.29021 2833 ft 169 kts 87°
2026-05-05 23:03 21.13004 -157.27822 2916 ft 163 kts 85°
2026-05-05 23:03 21.13083 -157.26603 2891 ft 166 kts 86°
2026-05-05 23:04 21.13163 -157.25379 2936 ft 161 kts 85°
2026-05-05 23:04 21.13281 -157.24190 3026 ft 164 kts 81°
2026-05-05 23:04 21.13436 -157.22998 3167 ft 159 kts 82°
2026-05-05 23:04 21.13554 -157.21818 3361 ft 161 kts 85°
2026-05-05 23:05 21.13646 -157.20612 3442 ft 162 kts 84°
2026-05-05 23:05 21.13721 -157.19369 3216 ft 170 kts 90°
2026-05-05 23:05 21.13687 -157.18142 3087 ft 164 kts 91°
2026-05-05 23:05 21.13663 -157.16902 2838 ft 162 kts 90°
2026-05-05 23:06 21.13685 -157.15735 2543 ft 165 kts 86°
2026-05-05 23:06 21.13757 -157.14519 2082 ft 161 kts 85°
2026-05-05 23:06 21.13814 -157.13342 1601 ft 162 kts 85°
2026-05-05 23:06 21.13982 -157.12173 1012 ft 156 kts 73°
2026-05-05 23:07 21.14407 -157.11174 692 ft 142 kts 64°
2026-05-05 23:07 21.14887 -157.10260 486 ft 143 kts 64°
2026-05-05 23:07 21.15351 -157.09385 492 ft 134 kts 65°
2026-05-05 23:07 21.15835 -157.08353 1064 ft 170 kts 69°
2026-05-05 23:08 21.16259 -157.07141 1580 ft 172 kts 77°
2026-05-05 23:08 21.16059 -157.05938 2401 ft 179 kts 127°
2026-05-05 23:08 21.15008 -157.05216 3123 ft 184 kts 160°
2026-05-05 23:08 21.13693 -157.05116 3526 ft 197 kts 187°
2026-05-05 23:09 21.12381 -157.05336 3862 ft 183 kts 199°
2026-05-05 23:09 21.11453 -157.06116 3888 ft 154 kts 242°
2026-05-05 23:09 21.11261 -157.07218 3358 ft 164 kts 271°
2026-05-05 23:09 21.11422 -157.08399 2435 ft 159 kts 290°
2026-05-05 23:10 21.11972 -157.09358 1614 ft 153 kts 318°
2026-05-05 23:10 21.12919 -157.09720 1087 ft 149 kts 352°
2026-05-05 23:10 21.13928 -157.09761 723 ft 143 kts 359°
2026-05-05 23:10 21.14885 -157.09758 440 ft 131 kts 358°
2026-05-05 23:11 21.15471 -157.09760 436 ft 34 kts 360°
2026-05-05 23:11 21.15614 -157.09760 446 ft 2 kts 271°
2026-05-05 23:11 21.15530 -157.09761 444 ft 25 kts 179°
2026-05-05 23:11 21.15414 -157.09661 435 ft 21 kts 116°
2026-05-05 23:12 21.15363 -157.09514 443 ft 22 kts 68°
2026-05-05 23:12 21.15445 -157.09356 434 ft 29 kts 60°
2026-05-05 23:12 21.15522 -157.09275 447 ft 0 kts 61°